sensor_id;sensor_type;location;lat;lon;timestamp;pressure;altitude;pressure_sealevel;temperature;humidity
4836;BME280;2432;51.226;6.904;2022-11-20T00:01:20;100528.88;;;3.59;100.00
4836;BME280;2432;51.226;6.904;2022-11-20T00:03:47;100527.16;;;3.60;100.00
4836;BME280;2432;51.226;6.904;2022-11-20T00:06:16;100530.59;;;3.57;100.00
4836;BME280;2432;51.226;6.904;2022-11-20T00:08:43;100520.25;;;3.57;100.00
4836;BME280;2432;51.226;6.904;2022-11-20T00:11:15;100526.28;;;3.56;100.00
4836;BME280;2432;51.226;6.904;2022-11-20T00:13:43;100525.44;;;3.60;100.00
4836;BME280;2432;51.226;6.904;2022-11-20T00:16:11;100515.09;;;3.60;100.00
4836;BME280;2432;51.226;6.904;2022-11-20T00:18:38;100515.94;;;3.56;100.00
4836;BME280;2432;51.226;6.904;2022-11-20T00:21:07;100518.53;;;3.56;100.00
4836;BME280;2432;51.226;6.904;2022-11-20T00:23:36;100515.09;;;3.59;100.00
4836;BME280;2432;51.226;6.904;2022-11-20T00:26:04;100522.84;;;3.62;100.00
4836;BME280;2432;51.226;6.904;2022-11-20T00:28:31;100518.53;;;3.64;100.00
4836;BME280;2432;51.226;6.904;2022-11-20T00:31:09;100518.53;;;3.58;100.00
4836;BME280;2432;51.226;6.904;2022-11-20T00:33:36;100511.63;;;3.58;100.00
4836;BME280;2432;51.226;6.904;2022-11-20T00:36:08;100520.22;;;3.53;100.00
4836;BME280;2432;51.226;6.904;2022-11-20T00:38:34;100514.16;;;3.54;100.00
4836;BME280;2432;51.226;6.904;2022-11-20T00:41:04;100512.44;;;3.53;100.00
4836;BME280;2432;51.226;6.904;2022-11-20T00:43:31;100520.22;;;3.54;100.00
4836;BME280;2432;51.226;6.904;2022-11-20T00:45:58;100520.25;;;3.60;100.00
4836;BME280;2432;51.226;6.904;2022-11-20T00:48:25;100520.25;;;3.57;100.00
4836;BME280;2432;51.226;6.904;2022-11-20T00:50:52;100512.50;;;3.57;100.00
4836;BME280;2432;51.226;6.904;2022-11-20T00:53:19;100514.16;;;3.54;100.00
4836;BME280;2432;51.226;6.904;2022-11-20T00:56:00;100521.06;;;3.55;100.00
4836;BME280;2432;51.226;6.904;2022-11-20T00:58:32;100513.25;;;3.47;100.00
4836;BME280;2432;51.226;6.904;2022-11-20T01:01:10;100512.38;;;3.45;100.00
4836;BME280;2432;51.226;6.904;2022-11-20T01:03:39;100518.44;;;3.47;100.00
4836;BME280;2432;51.226;6.904;2022-11-20T01:06:14;100517.59;;;3.50;100.00
4836;BME280;2432;51.226;6.904;2022-11-20T01:08:41;100508.97;;;3.49;100.00
4836;BME280;2432;51.226;6.904;2022-11-20T01:11:11;100510.72;;;3.49;100.00
4836;BME280;2432;51.226;6.904;2022-11-20T01:13:38;100502.91;;;3.47;100.00
4836;BME280;2432;51.226;6.904;2022-11-20T01:16:07;100506.41;;;3.52;100.00
4836;BME280;2432;51.226;6.904;2022-11-20T01:18:35;100505.53;;;3.52;100.00
4836;BME280;2432;51.226;6.904;2022-11-20T01:21:07;100507.28;;;3.54;100.00
4836;BME280;2432;51.226;6.904;2022-11-20T01:23:35;100494.31;;;3.53;100.00
4836;BME280;2432;51.226;6.904;2022-11-20T01:26:05;100491.75;;;3.53;100.00
4836;BME280;2432;51.226;6.904;2022-11-20T01:28:32;100496.06;;;3.52;100.00
4836;BME280;2432;51.226;6.904;2022-11-20T01:30:59;100498.63;;;3.52;100.00
4836;BME280;2432;51.226;6.904;2022-11-20T01:33:26;100502.09;;;3.51;100.00
4836;BME280;2432;51.226;6.904;2022-11-20T01:35:53;100495.19;;;3.49;100.00
4836;BME280;2432;51.226;6.904;2022-11-20T01:38:20;100494.31;;;3.50;100.00
4836;BME280;2432;51.226;6.904;2022-11-20T01:40:54;100504.69;;;3.51;100.00
4836;BME280;2432;51.226;6.904;2022-11-20T01:43:22;100502.06;;;3.48;100.00
4836;BME280;2432;51.226;6.904;2022-11-20T01:48:37;100500.31;;;3.44;100.00
4836;BME280;2432;51.226;6.904;2022-11-20T01:51:08;100493.41;;;3.46;100.00
4836;BME280;2432;51.226;6.904;2022-11-20T01:53:37;100497.78;;;3.49;100.00
4836;BME280;2432;51.226;6.904;2022-11-20T01:56:08;100494.31;;;3.50;100.00
4836;BME280;2432;51.226;6.904;2022-11-20T01:58:39;100489.16;;;3.51;100.00
4836;BME280;2432;51.226;6.904;2022-11-20T02:01:08;100492.59;;;3.50;100.00
4836;BME280;2432;51.226;6.904;2022-11-20T02:03:35;100491.69;;;3.45;100.00
4836;BME280;2432;51.226;6.904;2022-11-20T02:06:16;100490.88;;;3.49;100.00
4836;BME280;2432;51.226;6.904;2022-11-20T02:08:45;100482.19;;;3.44;100.00
4836;BME280;2432;51.226;6.904;2022-11-20T02:11:12;100490.00;;;3.49;100.00
4836;BME280;2432;51.226;6.904;2022-11-20T02:13:39;100484.78;;;3.46;100.00
4836;BME280;2432;51.226;6.904;2022-11-20T02:16:19;100483.06;;;3.42;100.00
4836;BME280;2432;51.226;6.904;2022-11-20T02:18:46;100477.03;;;3.44;100.00
4836;BME280;2432;51.226;6.904;2022-11-20T02:24:03;100470.13;;;3.46;100.00
4836;BME280;2432;51.226;6.904;2022-11-20T02:26:35;100474.47;;;3.49;100.00
4836;BME280;2432;51.226;6.904;2022-11-20T02:29:04;100461.50;;;3.47;100.00
4836;BME280;2432;51.226;6.904;2022-11-20T02:31:36;100462.34;;;3.43;100.00
4836;BME280;2432;51.226;6.904;2022-11-20T02:34:03;100468.41;;;3.45;100.00
4836;BME280;2432;51.226;6.904;2022-11-20T02:36:32;100462.38;;;3.46;100.00
4836;BME280;2432;51.226;6.904;2022-11-20T02:38:59;100460.66;;;3.47;100.00
4836;BME280;2432;51.226;6.904;2022-11-20T02:41:36;100463.22;;;3.47;100.00
4836;BME280;2432;51.226;6.904;2022-11-20T02:44:04;100451.16;;;3.41;100.00
4836;BME280;2432;51.226;6.904;2022-11-20T02:46:31;100445.91;;;3.35;100.00
4836;BME280;2432;51.226;6.904;2022-11-20T02:48:59;100452.81;;;3.36;100.00
4836;BME280;2432;51.226;6.904;2022-11-20T02:51:26;100452.81;;;3.34;100.00
4836;BME280;2432;51.226;6.904;2022-11-20T02:53:53;100443.34;;;3.33;100.00
4836;BME280;2432;51.226;6.904;2022-11-20T02:56:19;100448.50;;;3.36;100.00
4836;BME280;2432;51.226;6.904;2022-11-20T02:58:46;100451.09;;;3.36;100.00
4836;BME280;2432;51.226;6.904;2022-11-20T03:01:13;100449.38;;;3.37;100.00
4836;BME280;2432;51.226;6.904;2022-11-20T03:03:39;100445.94;;;3.38;100.00
4836;BME280;2432;51.226;6.904;2022-11-20T03:06:06;100447.69;;;3.44;100.00
4836;BME280;2432;51.226;6.904;2022-11-20T03:08:34;100445.94;;;3.38;100.00
4836;BME280;2432;51.226;6.904;2022-11-20T03:11:05;100443.38;;;3.41;100.00
4836;BME280;2432;51.226;6.904;2022-11-20T03:13:32;100435.63;;;3.44;100.00
4836;BME280;2432;51.226;6.904;2022-11-20T03:16:05;100444.25;;;3.45;100.00
4836;BME280;2432;51.226;6.904;2022-11-20T03:18:32;100446.81;;;3.40;100.00
4836;BME280;2432;51.226;6.904;2022-11-20T03:20:59;100444.25;;;3.40;100.00
4836;BME280;2432;51.226;6.904;2022-11-20T03:23:25;100451.16;;;3.44;100.00
4836;BME280;2432;51.226;6.904;2022-11-20T03:25:52;100452.88;;;3.42;100.00
4836;BME280;2432;51.226;6.904;2022-11-20T03:28:19;100449.41;;;3.42;100.00
4836;BME280;2432;51.226;6.904;2022-11-20T03:30:45;100440.75;;;3.35;100.00
4836;BME280;2432;51.226;6.904;2022-11-20T03:33:11;100436.38;;;3.25;100.00
4836;BME280;2432;51.226;6.904;2022-11-20T03:35:38;100430.34;;;3.27;100.00
4836;BME280;2432;51.226;6.904;2022-11-20T03:38:04;100434.66;;;3.28;100.00
4836;BME280;2432;51.226;6.904;2022-11-20T03:40:33;100434.66;;;3.27;100.00
4836;BME280;2432;51.226;6.904;2022-11-20T03:43:00;100434.66;;;3.25;100.00
4836;BME280;2432;51.226;6.904;2022-11-20T03:45:26;100445.81;;;3.20;100.00
4836;BME280;2432;51.226;6.904;2022-11-20T03:47:53;100441.44;;;3.12;100.00
4836;BME280;2432;51.226;6.904;2022-11-20T03:50:19;100440.63;;;3.15;100.00
4836;BME280;2432;51.226;6.904;2022-11-20T03:52:45;100435.44;;;3.14;100.00
4836;BME280;2432;51.226;6.904;2022-11-20T03:55:12;100432.81;;;3.07;100.00
4836;BME280;2432;51.226;6.904;2022-11-20T03:57:39;100431.09;;;3.05;100.00
4836;BME280;2432;51.226;6.904;2022-11-20T04:00:06;100439.72;;;3.08;100.00
4836;BME280;2432;51.226;6.904;2022-11-20T04:02:32;100437.13;;;3.11;100.00
4836;BME280;2432;51.226;6.904;2022-11-20T04:04:59;100432.00;;;3.16;100.00
4836;BME280;2432;51.226;6.904;2022-11-20T04:07:25;100431.16;;;3.19;100.00
4836;BME280;2432;51.226;6.904;2022-11-20T04:09:52;100437.13;;;3.11;100.00
4836;BME280;2432;51.226;6.904;2022-11-20T04:12:18;100430.22;;;3.07;100.00
4836;BME280;2432;51.226;6.904;2022-11-20T04:14:45;100432.81;;;3.10;100.00
4836;BME280;2432;51.226;6.904;2022-11-20T04:17:11;100437.19;;;3.13;100.00
4836;BME280;2432;51.226;6.904;2022-11-20T04:19:37;100435.44;;;3.14;100.00
4836;BME280;2432;51.226;6.904;2022-11-20T04:22:04;100431.16;;;3.14;100.00
4836;BME280;2432;51.226;6.904;2022-11-20T04:24:30;100427.66;;;3.10;100.00
4836;BME280;2432;51.226;6.904;2022-11-20T04:26:58;100421.63;;;3.11;100.00
4836;BME280;2432;51.226;6.904;2022-11-20T04:29:24;100426.84;;;3.15;100.00
4836;BME280;2432;51.226;6.904;2022-11-20T04:31:51;100431.16;;;3.17;100.00
4836;BME280;2432;51.226;6.904;2022-11-20T04:34:17;100437.19;;;3.13;100.00
4836;BME280;2432;51.226;6.904;2022-11-20T04:36:44;100429.38;;;3.10;100.00
4836;BME280;2432;51.226;6.904;2022-11-20T04:39:12;100435.38;;;3.04;100.00
4836;BME280;2432;51.226;6.904;2022-11-20T04:41:40;100440.56;;;3.07;100.00
4836;BME280;2432;51.226;6.904;2022-11-20T04:44:07;100439.75;;;3.13;100.00
4836;BME280;2432;51.226;6.904;2022-11-20T04:46:36;100431.09;;;3.12;100.00
4836;BME280;2432;51.226;6.904;2022-11-20T04:49:03;100433.69;;;3.11;100.00
4836;BME280;2432;51.226;6.904;2022-11-20T04:51:30;100430.22;;;3.07;100.00
4836;BME280;2432;51.226;6.904;2022-11-20T04:53:57;100436.28;;;3.09;100.00
4836;BME280;2432;51.226;6.904;2022-11-20T04:56:23;100436.28;;;3.11;100.00
4836;BME280;2432;51.226;6.904;2022-11-20T04:58:50;100428.56;;;3.16;100.00
4836;BME280;2432;51.226;6.904;2022-11-20T05:01:19;100428.56;;;3.16;100.00
4836;BME280;2432;51.226;6.904;2022-11-20T05:03:46;100432.88;;;3.17;100.00
4836;BME280;2432;51.226;6.904;2022-11-20T05:06:14;100432.00;;;3.18;100.00
4836;BME280;2432;51.226;6.904;2022-11-20T05:08:41;100435.47;;;3.18;100.00
4836;BME280;2432;51.226;6.904;2022-11-20T05:11:13;100426.88;;;3.22;100.00
4836;BME280;2432;51.226;6.904;2022-11-20T05:13:41;100426.88;;;3.24;100.00
4836;BME280;2432;51.226;6.904;2022-11-20T05:16:11;100425.13;;;3.21;100.00
4836;BME280;2432;51.226;6.904;2022-11-20T05:18:38;100426.88;;;3.24;100.00
4836;BME280;2432;51.226;6.904;2022-11-20T05:21:05;100437.25;;;3.24;100.00
4836;BME280;2432;51.226;6.904;2022-11-20T05:23:34;100432.06;;;3.24;100.00
4836;BME280;2432;51.226;6.904;2022-11-20T05:26:01;100438.09;;;3.26;100.00
4836;BME280;2432;51.226;6.904;2022-11-20T05:28:29;100432.03;;;3.21;100.00
4836;BME280;2432;51.226;6.904;2022-11-20T05:31:03;100442.41;;;3.22;100.00
4836;BME280;2432;51.226;6.904;2022-11-20T05:33:29;100428.63;;;3.23;100.00
4836;BME280;2432;51.226;6.904;2022-11-20T05:35:59;100427.72;;;3.20;100.00
4836;BME280;2432;51.226;6.904;2022-11-20T05:38:25;100433.75;;;3.20;100.00
4836;BME280;2432;51.226;6.904;2022-11-20T05:40:52;100433.75;;;3.19;100.00
4836;BME280;2432;51.226;6.904;2022-11-20T05:43:18;100434.66;;;3.22;100.00
4836;BME280;2432;51.226;6.904;2022-11-20T05:45:54;100420.84;;;3.22;100.00
4836;BME280;2432;51.226;6.904;2022-11-20T05:48:21;100431.19;;;3.23;100.00
4836;BME280;2432;51.226;6.904;2022-11-20T05:50:48;100432.06;;;3.22;100.00
4836;BME280;2432;51.226;6.904;2022-11-20T05:53:14;100431.16;;;3.19;100.00
4836;BME280;2432;51.226;6.904;2022-11-20T05:55:41;100433.69;;;3.08;100.00
4836;BME280;2432;51.226;6.904;2022-11-20T05:58:08;100431.09;;;3.12;100.00
4836;BME280;2432;51.226;6.904;2022-11-20T06:00:34;100429.41;;;3.15;100.00
4836;BME280;2432;51.226;6.904;2022-11-20T06:03:01;100423.41;;;3.20;100.00
4836;BME280;2432;51.226;6.904;2022-11-20T06:05:28;100418.22;;;3.20;100.00
4836;BME280;2432;51.226;6.904;2022-11-20T06:07:54;100421.72;;;3.24;100.00
4836;BME280;2432;51.226;6.904;2022-11-20T06:10:21;100431.22;;;3.26;100.00
4836;BME280;2432;51.226;6.904;2022-11-20T06:12:47;100431.22;;;3.25;100.00
4836;BME280;2432;51.226;6.904;2022-11-20T06:15:14;100431.19;;;3.22;100.00
4836;BME280;2432;51.226;6.904;2022-11-20T06:17:40;100431.16;;;3.16;100.00
4836;BME280;2432;51.226;6.904;2022-11-20T06:20:07;100433.72;;;3.16;100.00
4836;BME280;2432;51.226;6.904;2022-11-20T06:22:33;100426.84;;;3.18;100.00
4836;BME280;2432;51.226;6.904;2022-11-20T06:25:00;100432.03;;;3.21;100.00
4836;BME280;2432;51.226;6.904;2022-11-20T06:27:26;100429.47;;;3.22;100.00
4836;BME280;2432;51.226;6.904;2022-11-20T06:29:53;100424.31;;;3.22;100.00
4836;BME280;2432;51.226;6.904;2022-11-20T06:32:19;100428.63;;;3.25;100.00
4836;BME280;2432;51.226;6.904;2022-11-20T06:34:46;100427.75;;;3.24;100.00
4836;BME280;2432;51.226;6.904;2022-11-20T06:37:12;100430.34;;;3.26;100.00
4836;BME280;2432;51.226;6.904;2022-11-20T06:39:38;100428.63;;;3.23;100.00
4836;BME280;2432;51.226;6.904;2022-11-20T06:42:05;100435.53;;;3.27;100.00
4836;BME280;2432;51.226;6.904;2022-11-20T06:44:31;100438.13;;;3.29;100.00
4836;BME280;2432;51.226;6.904;2022-11-20T06:46:58;100436.44;;;3.32;100.00
4836;BME280;2432;51.226;6.904;2022-11-20T06:49:25;100437.25;;;3.28;100.00
4836;BME280;2432;51.226;6.904;2022-11-20T06:51:52;100441.56;;;3.28;100.00
4836;BME280;2432;51.226;6.904;2022-11-20T06:54:18;100443.31;;;3.32;100.00
4836;BME280;2432;51.226;6.904;2022-11-20T06:56:48;100436.44;;;3.34;100.00
4836;BME280;2432;51.226;6.904;2022-11-20T06:59:15;100434.66;;;3.30;100.00
4836;BME280;2432;51.226;6.904;2022-11-20T07:01:41;100432.13;;;3.31;100.00
4836;BME280;2432;51.226;6.904;2022-11-20T07:04:07;100434.66;;;3.27;100.00
4836;BME280;2432;51.226;6.904;2022-11-20T07:06:34;100434.59;;;3.19;100.00
4836;BME280;2432;51.226;6.904;2022-11-20T07:09:00;100434.53;;;3.10;100.00
4836;BME280;2432;51.226;6.904;2022-11-20T07:11:27;100440.59;;;3.12;100.00
4836;BME280;2432;51.226;6.904;2022-11-20T07:13:54;100442.31;;;3.11;100.00
4836;BME280;2432;51.226;6.904;2022-11-20T07:16:20;100444.03;;;3.12;100.00
4836;BME280;2432;51.226;6.904;2022-11-20T07:18:47;100444.88;;;3.07;100.00
4836;BME280;2432;51.226;6.904;2022-11-20T07:21:16;100451.72;;;3.02;100.00
4836;BME280;2432;51.226;6.904;2022-11-20T07:23:44;100455.16;;;2.96;100.00
4836;BME280;2432;51.226;6.904;2022-11-20T07:26:11;100458.63;;;3.00;100.00
4836;BME280;2432;51.226;6.904;2022-11-20T07:28:38;100456.88;;;2.99;100.00
4836;BME280;2432;51.226;6.904;2022-11-20T07:31:04;100462.06;;;2.97;100.00
4836;BME280;2432;51.226;6.904;2022-11-20T07:33:32;100454.22;;;2.90;100.00
4836;BME280;2432;51.226;6.904;2022-11-20T07:35:59;100449.91;;;2.90;100.00
4836;BME280;2432;51.226;6.904;2022-11-20T07:38:26;100464.56;;;2.88;100.00
4836;BME280;2432;51.226;6.904;2022-11-20T07:40:56;100462.84;;;2.90;100.00
4836;BME280;2432;51.226;6.904;2022-11-20T07:43:24;100456.75;;;2.85;100.00
4836;BME280;2432;51.226;6.904;2022-11-20T07:45:51;100456.81;;;2.88;100.00
4836;BME280;2432;51.226;6.904;2022-11-20T07:48:17;100452.50;;;2.87;100.00
4836;BME280;2432;51.226;6.904;2022-11-20T07:50:44;100454.22;;;2.88;100.00
4836;BME280;2432;51.226;6.904;2022-11-20T07:53:10;100461.91;;;2.83;100.00
4836;BME280;2432;51.226;6.904;2022-11-20T07:55:38;100449.91;;;2.87;100.00
4836;BME280;2432;51.226;6.904;2022-11-20T07:58:05;100455.91;;;2.86;100.00
4836;BME280;2432;51.226;6.904;2022-11-20T08:00:31;100450.72;;;2.86;100.00
4836;BME280;2432;51.226;6.904;2022-11-20T08:02:58;100447.31;;;2.87;100.00
4836;BME280;2432;51.226;6.904;2022-11-20T08:05:24;100447.34;;;2.89;100.00
4836;BME280;2432;51.226;6.904;2022-11-20T08:07:51;100445.63;;;2.94;100.00
4836;BME280;2432;51.226;6.904;2022-11-20T08:10:17;100442.22;;;2.96;100.00
4836;BME280;2432;51.226;6.904;2022-11-20T08:12:48;100437.06;;;3.01;100.00
4836;BME280;2432;51.226;6.904;2022-11-20T08:15:34;100434.53;;;3.05;100.00
4836;BME280;2432;51.226;6.904;2022-11-20T08:18:09;100435.41;;;3.06;100.00
4836;BME280;2432;51.226;6.904;2022-11-20T08:21:05;100443.19;;;3.12;100.00
4836;BME280;2432;51.226;6.904;2022-11-20T08:23:32;100444.94;;;3.18;100.00
4836;BME280;2432;51.226;6.904;2022-11-20T08:25:58;100441.50;;;3.17;100.00
4836;BME280;2432;51.226;6.904;2022-11-20T08:28:24;100446.69;;;3.19;100.00
4836;BME280;2432;51.226;6.904;2022-11-20T08:30:51;100446.72;;;3.25;100.00
4836;BME280;2432;51.226;6.904;2022-11-20T08:33:23;100451.94;;;3.31;100.00
4836;BME280;2432;51.226;6.904;2022-11-20T08:35:49;100455.41;;;3.31;100.00
4836;BME280;2432;51.226;6.904;2022-11-20T08:38:16;100451.03;;;3.29;100.00
4836;BME280;2432;51.226;6.904;2022-11-20T08:40:42;100452.75;;;3.27;100.00
4836;BME280;2432;51.226;6.904;2022-11-20T08:43:29;100445.91;;;3.35;100.00
4836;BME280;2432;51.226;6.904;2022-11-20T08:45:56;100448.56;;;3.39;100.00
4836;BME280;2432;51.226;6.904;2022-11-20T08:48:23;100449.44;;;3.43;100.00
4836;BME280;2432;51.226;6.904;2022-11-20T08:50:49;100450.28;;;3.47;100.00
4836;BME280;2432;51.226;6.904;2022-11-20T08:53:16;100452.06;;;3.49;100.00
4836;BME280;2432;51.226;6.904;2022-11-20T08:55:42;100455.50;;;3.54;100.00
4836;BME280;2432;51.226;6.904;2022-11-20T08:58:09;100449.47;;;3.55;100.00
4836;BME280;2432;51.226;6.904;2022-11-20T09:00:35;100444.34;;;3.57;100.00
4836;BME280;2432;51.226;6.904;2022-11-20T09:03:02;100449.50;;;3.58;100.00
4836;BME280;2432;51.226;6.904;2022-11-20T09:05:28;100446.94;;;3.63;100.00
4836;BME280;2432;51.226;6.904;2022-11-20T09:07:59;100453.84;;;3.59;100.00
4836;BME280;2432;51.226;6.904;2022-11-20T09:10:26;100446.88;;;3.55;100.00
4836;BME280;2432;51.226;6.904;2022-11-20T09:12:53;100440.03;;;3.57;100.00
4836;BME280;2432;51.226;6.904;2022-11-20T09:15:22;100444.34;;;3.58;100.00
4836;BME280;2432;51.226;6.904;2022-11-20T09:18:02;100440.06;;;3.65;100.00
4836;BME280;2432;51.226;6.904;2022-11-20T09:20:30;100438.34;;;3.73;100.00
4836;BME280;2432;51.226;6.904;2022-11-20T09:22:57;100443.56;;;3.78;100.00
4836;BME280;2432;51.226;6.904;2022-11-20T09:25:24;100436.66;;;3.81;100.00
4836;BME280;2432;51.226;6.904;2022-11-20T09:27:57;100430.66;;;3.84;100.00
4836;BME280;2432;51.226;6.904;2022-11-20T09:30:25;100427.16;;;3.82;100.00
4836;BME280;2432;51.226;6.904;2022-11-20T09:32:52;100420.25;;;3.78;100.00
4836;BME280;2432;51.226;6.904;2022-11-20T10:30:13;100395.41;;;4.44;100.00
4836;BME280;2432;51.226;6.904;2022-11-20T10:32:49;100391.94;;;4.36;100.00
4836;BME280;2432;51.226;6.904;2022-11-20T10:37:56;100382.41;;;4.24;100.00
4836;BME280;2432;51.226;6.904;2022-11-20T10:40:57;100383.28;;;4.26;100.00
4836;BME280;2432;51.226;6.904;2022-11-20T10:43:46;100373.78;;;4.27;100.00
4836;BME280;2432;51.226;6.904;2022-11-20T10:46:16;100364.28;;;4.29;100.00
4836;BME280;2432;51.226;6.904;2022-11-20T10:48:44;100368.59;;;4.30;100.00
4836;BME280;2432;51.226;6.904;2022-11-20T10:54:22;100358.25;;;4.36;100.00
4836;BME280;2432;51.226;6.904;2022-11-20T10:56:57;100365.16;;;4.37;100.00
4836;BME280;2432;51.226;6.904;2022-11-20T10:59:35;100347.00;;;4.40;100.00
4836;BME280;2432;51.226;6.904;2022-11-20T11:02:21;100344.41;;;4.43;100.00
4836;BME280;2432;51.226;6.904;2022-11-20T11:04:50;100340.97;;;4.47;100.00
4836;BME280;2432;51.226;6.904;2022-11-20T11:09:56;100338.34;;;4.50;100.00
4836;BME280;2432;51.226;6.904;2022-11-20T11:12:25;100328.88;;;4.47;100.00
4836;BME280;2432;51.226;6.904;2022-11-20T11:14:54;100325.41;;;4.47;100.00
4836;BME280;2432;51.226;6.904;2022-11-20T11:17:47;100321.09;;;4.40;100.00
4836;BME280;2432;51.226;6.904;2022-11-20T11:23:03;100317.66;;;4.44;100.00
4836;BME280;2432;51.226;6.904;2022-11-20T11:25:33;100309.00;;;4.43;100.00
4836;BME280;2432;51.226;6.904;2022-11-20T11:30:29;100294.31;;;4.47;100.00
4836;BME280;2432;51.226;6.904;2022-11-20T11:33:10;100301.22;;;4.45;100.00
4836;BME280;2432;51.226;6.904;2022-11-20T11:35:46;100298.63;;;4.46;100.00
4836;BME280;2432;51.226;6.904;2022-11-20T11:38:22;100292.59;;;4.47;100.00
4836;BME280;2432;51.226;6.904;2022-11-20T11:40:53;100286.53;;;4.47;100.00
4836;BME280;2432;51.226;6.904;2022-11-20T11:43:23;100283.09;;;4.45;100.00
4836;BME280;2432;51.226;6.904;2022-11-20T11:46:25;100278.75;;;4.47;100.00
4836;BME280;2432;51.226;6.904;2022-11-20T11:52:00;100266.66;;;4.49;100.00
4836;BME280;2432;51.226;6.904;2022-11-20T11:57:00;100253.69;;;4.53;100.00
4836;BME280;2432;51.226;6.904;2022-11-20T12:02:27;100247.63;;;4.56;100.00
4836;BME280;2432;51.226;6.904;2022-11-20T12:05:05;100232.06;;;4.59;100.00
4836;BME280;2432;51.226;6.904;2022-11-20T12:10:39;100237.28;;;4.62;100.00
4836;BME280;2432;51.226;6.904;2022-11-20T12:13:37;100235.53;;;4.64;100.00
4836;BME280;2432;51.226;6.904;2022-11-20T12:16:11;100238.09;;;4.69;100.00
4836;BME280;2432;51.226;6.904;2022-11-20T12:18:39;100232.06;;;4.70;100.00
4836;BME280;2432;51.226;6.904;2022-11-20T12:21:28;100226.88;;;4.71;100.00
4836;BME280;2432;51.226;6.904;2022-11-20T12:24:04;100233.78;;;4.71;100.00
4836;BME280;2432;51.226;6.904;2022-11-20T12:29:30;100224.28;;;4.70;100.00
4836;BME280;2432;51.226;6.904;2022-11-20T12:35:04;100215.63;;;4.78;100.00
4836;BME280;2432;51.226;6.904;2022-11-20T12:40:38;100201.72;;;4.90;100.00
4836;BME280;2432;51.226;6.904;2022-11-20T12:43:27;100205.16;;;4.94;100.00
4836;BME280;2432;51.226;6.904;2022-11-20T12:54:45;100182.72;;;4.90;100.00
4836;BME280;2432;51.226;6.904;2022-11-20T12:57:41;100184.47;;;4.88;100.00
4836;BME280;2432;51.226;6.904;2022-11-20T13:00:22;100175.81;;;4.87;100.00
4836;BME280;2432;51.226;6.904;2022-11-20T13:03:15;100181.00;;;4.87;100.00
4836;BME280;2432;51.226;6.904;2022-11-20T13:06:14;100171.50;;;4.85;100.00
4836;BME280;2432;51.226;6.904;2022-11-20T13:08:48;100150.75;;;4.89;100.00
4836;BME280;2432;51.226;6.904;2022-11-20T13:11:32;100149.88;;;4.87;100.00
4836;BME280;2432;51.226;6.904;2022-11-20T13:14:11;100135.19;;;4.88;100.00
4836;BME280;2432;51.226;6.904;2022-11-20T13:16:47;100134.31;;;4.89;100.00
4836;BME280;2432;51.226;6.904;2022-11-20T13:19:17;100134.34;;;4.87;100.00
4836;BME280;2432;51.226;6.904;2022-11-20T13:21:46;100120.50;;;4.88;100.00
4836;BME280;2432;51.226;6.904;2022-11-20T13:29:27;100132.59;;;4.85;100.00
4836;BME280;2432;51.226;6.904;2022-11-20T13:32:03;100122.22;;;4.86;100.00
4836;BME280;2432;51.226;6.904;2022-11-20T13:34:33;100117.03;;;4.89;100.00
4836;BME280;2432;51.226;6.904;2022-11-20T13:37:00;100117.03;;;4.88;100.00
4836;BME280;2432;51.226;6.904;2022-11-20T13:39:32;100117.88;;;4.90;100.00
4836;BME280;2432;51.226;6.904;2022-11-20T13:42:02;100107.50;;;4.90;100.00
4836;BME280;2432;51.226;6.904;2022-11-20T13:44:48;100106.66;;;4.89;100.00
4836;BME280;2432;51.226;6.904;2022-11-20T13:47:21;100098.00;;;4.89;100.00
4836;BME280;2432;51.226;6.904;2022-11-20T13:49:48;100089.34;;;4.90;100.00
4836;BME280;2432;51.226;6.904;2022-11-20T13:57:49;100071.16;;;4.96;100.00
4836;BME280;2432;51.226;6.904;2022-11-20T14:00:21;100061.63;;;4.95;100.00
4836;BME280;2432;51.226;6.904;2022-11-20T14:02:59;100062.50;;;4.97;100.00
4836;BME280;2432;51.226;6.904;2022-11-20T14:05:28;100059.06;;;4.95;100.00
4836;BME280;2432;51.226;6.904;2022-11-20T14:07:57;100059.06;;;4.95;100.00
4836;BME280;2432;51.226;6.904;2022-11-20T14:10:28;100056.47;;;4.98;100.00
4836;BME280;2432;51.226;6.904;2022-11-20T14:12:58;100051.28;;;4.96;100.00
4836;BME280;2432;51.226;6.904;2022-11-20T14:15:29;100043.50;;;4.96;100.00
4836;BME280;2432;51.226;6.904;2022-11-20T14:17:57;100040.00;;;4.99;100.00
4836;BME280;2432;51.226;6.904;2022-11-20T14:20:28;100040.00;;;4.99;100.00
4836;BME280;2432;51.226;6.904;2022-11-20T14:22:57;100027.00;;;5.02;100.00
4836;BME280;2432;51.226;6.904;2022-11-20T14:25:25;100021.81;;;5.03;100.00
4836;BME280;2432;51.226;6.904;2022-11-20T14:27:58;100009.72;;;5.05;100.00
4836;BME280;2432;51.226;6.904;2022-11-20T14:30:37;100015.72;;;5.09;100.00
4836;BME280;2432;51.226;6.904;2022-11-20T14:33:10;100007.94;;;5.09;100.00
4836;BME280;2432;51.226;6.904;2022-11-20T14:35:49;100001.88;;;5.10;100.00
4836;BME280;2432;51.226;6.904;2022-11-20T14:38:27;100002.75;;;5.10;100.00
4836;BME280;2432;51.226;6.904;2022-11-20T14:41:09;100003.63;;;5.08;100.00
4836;BME280;2432;51.226;6.904;2022-11-20T14:43:45;99989.81;;;5.07;100.00
4836;BME280;2432;51.226;6.904;2022-11-20T14:46:13;99996.72;;;5.07;100.00
4836;BME280;2432;51.226;6.904;2022-11-20T14:48:44;99989.81;;;5.06;100.00
4836;BME280;2432;51.226;6.904;2022-11-20T14:54:17;99979.44;;;5.06;100.00
4836;BME280;2432;51.226;6.904;2022-11-20T14:56:58;99969.94;;;5.03;100.00
4836;BME280;2432;51.226;6.904;2022-11-20T14:59:27;99964.75;;;5.03;100.00
4836;BME280;2432;51.226;6.904;2022-11-20T15:04:25;99957.84;;;5.05;100.00
4836;BME280;2432;51.226;6.904;2022-11-20T15:06:57;99959.56;;;5.05;100.00
4836;BME280;2432;51.226;6.904;2022-11-20T15:09:24;99961.31;;;5.04;100.00
4836;BME280;2432;51.226;6.904;2022-11-20T15:11:59;99956.09;;;5.03;100.00
4836;BME280;2432;51.226;6.904;2022-11-20T15:14:28;99950.91;;;5.06;100.00
4836;BME280;2432;51.226;6.904;2022-11-20T15:16:55;99950.06;;;5.04;100.00
4836;BME280;2432;51.226;6.904;2022-11-20T15:19:24;99948.31;;;5.03;100.00
4836;BME280;2432;51.226;6.904;2022-11-20T15:21:51;99944.00;;;5.05;100.00
4836;BME280;2432;51.226;6.904;2022-11-20T15:24:18;99938.81;;;5.05;100.00
4836;BME280;2432;51.226;6.904;2022-11-20T15:26:45;99936.22;;;5.03;100.00